Time;durP1;ratioP1;P1;durP2;ratioP2;P2;SDS_P1;SDS_P2;PMS_P1;PMS_P2;Temp;Humidity;BMP_temperature;BMP_pressure;BME280_temperature;BME280_humidity;BME280_pressure;Samples;Min_cycle;Max_cycle;Signal;HPM_P1;HPM_P2
2023/11/14 00:02:25;;;;;;;23.60;15.07;;;8.60;99.90;;;;;;5107633;27;20023;-78
2023/11/14 00:04:51;;;;;;;18.48;14.60;;;8.60;99.90;;;;;;5110910;28;20031;-84
2023/11/14 00:07:17;;;;;;;20.60;14.88;;;8.50;99.90;;;;;;5090188;28;20122;-84
2023/11/14 00:09:43;;;;;;;17.85;14.82;;;8.50;99.90;;;;;;5073927;28;20115;-83
2023/11/14 00:12:09;;;;;;;17.17;14.50;;;8.40;99.90;;;;;;5104220;27;20023;-82
2023/11/14 00:14:36;;;;;;;22.65;16.02;;;8.40;99.90;;;;;;5113009;27;20375;-81
2023/11/14 00:17:03;;;;;;;19.38;15.63;;;8.40;99.90;;;;;;5121703;27;20027;-81
2023/11/14 00:19:28;;;;;;;20.52;15.15;;;8.40;99.90;;;;;;5114771;27;20015;-83
2023/11/14 00:21:54;;;;;;;21.10;14.75;;;8.40;99.90;;;;;;5114045;28;20031;-83
2023/11/14 00:24:20;;;;;;;17.25;14.40;;;8.40;99.90;;;;;;5119266;27;20194;-83
2023/11/14 00:26:46;;;;;;;18.45;15.55;;;8.40;99.90;;;;;;5134495;27;20114;-83
2023/11/14 00:29:11;;;;;;;21.85;15.38;;;8.40;99.90;;;;;;5123633;27;20026;-84
2023/11/14 00:31:37;;;;;;;20.45;15.80;;;8.40;99.90;;;;;;5133711;27;20020;-84
2023/11/14 00:34:04;;;;;;;17.70;14.48;;;8.40;99.90;;;;;;5121870;27;20066;-84
2023/11/14 00:36:29;;;;;;;16.60;14.63;;;8.40;99.90;;;;;;5100572;27;20024;-84
2023/11/14 00:38:59;;;;;;;20.83;15.85;;;8.30;99.90;;;;;;5122988;27;20084;-84
2023/11/14 00:41:27;;;;;;;19.38;14.95;;;8.30;99.90;;;;;;5106098;27;20260;-84
2023/11/14 00:43:53;;;;;;;18.10;14.65;;;8.30;99.90;;;;;;5107014;27;20023;-84
2023/11/14 00:46:18;;;;;;;20.33;15.70;;;8.30;99.90;;;;;;5121252;27;20080;-84
2023/11/14 00:48:46;;;;;;;20.33;14.98;;;8.30;99.90;;;;;;5123027;27;20429;-84
2023/11/14 00:51:12;;;;;;;20.02;16.60;;;8.20;99.90;;;;;;5102828;28;20394;-84
2023/11/14 00:53:38;;;;;;;19.20;16.10;;;8.10;99.90;;;;;;5124305;27;20027;-84
2023/11/14 00:56:04;;;;;;;24.25;16.27;;;8.10;99.90;;;;;;5121534;27;20165;-84
2023/11/14 00:58:30;;;;;;;21.00;16.10;;;8.10;99.90;;;;;;5124745;27;20524;-83
2023/11/14 01:00:55;;;;;;;21.23;16.10;;;8.10;99.90;;;;;;5120613;27;20403;-83
2023/11/14 01:03:24;;;;;;;22.20;16.42;;;8.10;99.90;;;;;;5120983;27;20031;-84
2023/11/14 01:05:52;;;;;;;24.02;16.95;;;8.10;99.90;;;;;;5117466;27;20031;-84
2023/11/14 01:08:18;;;;;;;20.90;15.40;;;8.20;99.90;;;;;;5122455;27;20026;-85
2023/11/14 01:10:45;;;;;;;19.48;15.63;;;8.20;99.90;;;;;;5104904;27;20035;-84
2023/11/14 01:13:11;;;;;;;25.90;16.63;;;8.10;99.90;;;;;;5120894;28;20027;-85
2023/11/14 01:15:37;;;;;;;22.20;16.95;;;8.20;99.90;;;;;;5120561;27;20024;-84
2023/11/14 01:18:03;;;;;;;24.48;17.80;;;8.20;99.90;;;;;;5123145;28;20023;-84
2023/11/14 01:20:29;;;;;;;21.98;16.50;;;8.10;99.90;;;;;;5122652;28;20055;-84
2023/11/14 01:22:54;;;;;;;22.48;15.93;;;8.20;99.90;;;;;;5121310;28;20073;-84
2023/11/14 01:25:20;;;;;;;19.42;16.52;;;8.10;99.90;;;;;;5123974;28;20019;-84
2023/11/14 01:27:46;;;;;;;22.05;17.20;;;8.10;99.90;;;;;;5125449;27;20024;-84
2023/11/14 01:30:13;;;;;;;19.60;15.55;;;8.20;99.90;;;;;;5126659;27;20027;-84
2023/11/14 01:32:39;;;;;;;24.55;16.92;;;8.30;99.90;;;;;;5127421;27;20489;-84
2023/11/14 01:35:05;;;;;;;22.00;16.95;;;8.20;99.90;;;;;;5124907;27;20049;-84
2023/11/14 01:37:32;;;;;;;19.17;15.57;;;8.20;99.90;;;;;;5106399;27;20047;-84
2023/11/14 01:39:58;;;;;;;21.40;17.25;;;8.10;99.90;;;;;;5128928;27;20050;-84
2023/11/14 01:42:24;;;;;;;25.42;18.15;;;8.10;99.90;;;;;;5125936;27;20066;-84
2023/11/14 01:44:50;;;;;;;25.17;18.23;;;8.10;99.90;;;;;;5109044;27;20051;-84
2023/11/14 01:47:16;;;;;;;27.30;16.48;;;8.10;99.90;;;;;;5124277;27;20023;-84
2023/11/14 01:49:43;;;;;;;19.83;16.65;;;8.10;99.90;;;;;;5123658;27;20172;-84
2023/11/14 01:52:10;;;;;;;20.85;16.98;;;8.10;99.90;;;;;;5125799;27;20043;-85
2023/11/14 01:54:37;;;;;;;26.10;17.02;;;8.10;99.90;;;;;;5128504;27;20102;-84
2023/11/14 01:57:04;;;;;;;22.63;16.27;;;8.10;99.90;;;;;;5106168;28;20024;-84
2023/11/14 01:59:30;;;;;;;23.58;17.20;;;8.00;99.90;;;;;;5126874;27;20023;-84
2023/11/14 02:01:58;;;;;;;22.02;16.42;;;8.00;99.90;;;;;;5106184;27;20027;-84
2023/11/14 02:04:28;;;;;;;22.40;17.15;;;8.00;99.90;;;;;;5125251;27;20016;-84
2023/11/14 02:06:56;;;;;;;23.08;17.35;;;8.10;99.90;;;;;;5128095;27;20020;-84
2023/11/14 02:09:22;;;;;;;22.20;16.45;;;8.10;99.90;;;;;;5108105;27;20076;-84
2023/11/14 02:11:48;;;;;;;21.73;15.75;;;8.10;99.90;;;;;;5123201;27;20474;-84
2023/11/14 02:14:13;;;;;;;26.65;18.38;;;8.10;99.90;;;;;;5108585;27;20073;-84
2023/11/14 02:16:53;;;;;;;25.50;18.33;;;8.10;99.90;;;;;;5121689;27;20012;-84
2023/11/14 02:19:19;;;;;;;23.48;17.33;;;8.10;99.90;;;;;;5106975;27;20031;-85
2023/11/14 02:21:45;;;;;;;23.30;17.83;;;8.10;99.90;;;;;;5127173;27;20027;-84
2023/11/14 02:24:20;;;;;;;21.27;17.73;;;8.10;99.90;;;;;;5120060;27;20086;-84
2023/11/14 02:26:48;;;;;;;28.90;17.75;;;8.10;99.90;;;;;;5125025;27;20058;-84
2023/11/14 02:29:15;;;;;;;22.55;16.65;;;8.10;99.90;;;;;;5108744;27;20450;-84
2023/11/14 02:31:41;;;;;;;19.50;17.25;;;8.10;99.90;;;;;;5126832;27;20474;-84
2023/11/14 02:34:09;;;;;;;26.02;17.88;;;8.10;99.90;;;;;;5125214;27;20080;-84
2023/11/14 02:36:35;;;;;;;23.77;18.10;;;8.00;99.90;;;;;;5123944;27;20387;-84
2023/11/14 02:39:02;;;;;;;24.02;17.98;;;8.00;99.90;;;;;;5126735;27;20027;-83
2023/11/14 02:41:27;;;;;;;22.80;17.75;;;8.00;99.90;;;;;;5086019;27;20388;-84
2023/11/14 02:43:53;;;;;;;23.00;18.13;;;8.00;99.90;;;;;;5126055;27;20024;-84
2023/11/14 02:46:19;;;;;;;24.17;18.08;;;8.10;99.90;;;;;;5122615;27;20034;-84
2023/11/14 02:48:45;;;;;;;23.70;18.45;;;8.00;99.90;;;;;;5122789;27;20024;-84
2023/11/14 02:51:11;;;;;;;25.52;18.08;;;8.00;99.90;;;;;;5126282;27;20046;-83
2023/11/14 02:53:36;;;;;;;23.45;18.13;;;8.00;99.90;;;;;;5123639;27;20100;-84
2023/11/14 02:56:04;;;;;;;24.92;17.75;;;8.00;99.90;;;;;;5107107;27;20050;-84
2023/11/14 02:58:30;;;;;;;28.08;19.02;;;8.00;99.90;;;;;;5126589;27;20022;-84
2023/11/14 03:00:56;;;;;;;24.38;18.13;;;8.00;99.90;;;;;;5107967;27;20110;-84
2023/11/14 03:03:22;;;;;;;24.25;17.77;;;8.00;99.90;;;;;;5105126;27;20023;-84
2023/11/14 03:05:47;;;;;;;23.58;18.33;;;8.00;99.90;;;;;;5125708;27;20027;-84
2023/11/14 03:08:13;;;;;;;23.50;18.15;;;8.10;99.90;;;;;;5106510;27;20016;-84
2023/11/14 03:10:39;;;;;;;23.75;17.30;;;8.00;99.90;;;;;;5105352;27;20103;-84
2023/11/14 03:13:06;;;;;;;23.30;17.67;;;8.00;99.90;;;;;;5126347;27;20050;-84
2023/11/14 03:15:32;;;;;;;21.67;17.48;;;8.00;99.90;;;;;;5107801;27;20027;-84
2023/11/14 03:17:59;;;;;;;27.38;18.17;;;8.00;99.90;;;;;;5124106;27;20016;-84
2023/11/14 03:20:25;;;;;;;21.65;17.30;;;8.00;99.90;;;;;;5123786;27;20066;-84
2023/11/14 03:22:52;;;;;;;22.85;17.95;;;8.10;99.90;;;;;;5125645;27;20118;-84
2023/11/14 03:25:18;;;;;;;21.65;17.95;;;8.10;99.90;;;;;;5122815;27;20024;-84
2023/11/14 03:27:44;;;;;;;27.88;18.60;;;8.10;99.90;;;;;;5124930;27;20031;-84
2023/11/14 03:30:11;;;;;;;27.20;18.40;;;8.20;99.90;;;;;;5123997;27;20106;-84
2023/11/14 03:32:37;;;;;;;30.15;18.65;;;8.10;99.90;;;;;;5107104;27;20463;-84
2023/11/14 03:35:04;;;;;;;25.60;18.67;;;8.10;99.90;;;;;;5123614;27;20022;-84
2023/11/14 03:37:30;;;;;;;23.60;17.55;;;8.10;99.90;;;;;;5107909;27;20057;-83
2023/11/14 03:39:56;;;;;;;26.85;19.20;;;8.10;99.90;;;;;;5125059;27;20072;-83
2023/11/14 03:42:22;;;;;;;25.48;19.00;;;8.10;99.90;;;;;;5124469;27;20024;-84
2023/11/14 03:44:48;;;;;;;25.88;18.52;;;8.10;99.90;;;;;;5126498;27;20038;-84
2023/11/14 03:47:13;;;;;;;25.00;18.90;;;8.10;99.90;;;;;;5123388;27;20057;-83
2023/11/14 03:49:39;;;;;;;25.05;19.27;;;8.10;99.90;;;;;;5124686;27;20068;-83
2023/11/14 03:52:06;;;;;;;26.63;18.92;;;8.20;99.90;;;;;;5124783;27;21331;-84
2023/11/14 03:54:32;;;;;;;23.48;18.23;;;8.20;99.90;;;;;;5127390;27;20011;-84
2023/11/14 03:56:58;;;;;;;27.13;18.27;;;8.20;99.90;;;;;;5123325;27;20023;-84
2023/11/14 03:59:24;;;;;;;31.02;20.33;;;8.20;99.90;;;;;;5125837;27;20417;-84
2023/11/14 04:01:50;;;;;;;24.98;19.25;;;8.10;99.90;;;;;;5124181;27;20019;-84
2023/11/14 04:04:15;;;;;;;26.02;18.70;;;8.10;99.90;;;;;;5124077;27;20055;-82
2023/11/14 04:06:41;;;;;;;28.50;19.80;;;8.10;99.90;;;;;;5125488;27;20058;-84
2023/11/14 04:09:07;;;;;;;24.40;18.77;;;8.10;99.90;;;;;;5122884;27;20020;-84
2023/11/14 04:11:33;;;;;;;26.95;19.17;;;8.00;99.90;;;;;;5123520;27;20156;-83
2023/11/14 04:13:59;;;;;;;26.05;18.98;;;8.00;99.90;;;;;;5125381;27;20023;-83
2023/11/14 04:16:24;;;;;;;24.45;17.48;;;8.10;99.90;;;;;;5121543;27;20383;-84
2023/11/14 04:18:50;;;;;;;22.13;16.77;;;8.10;99.90;;;;;;5124962;27;20533;-83
2023/11/14 04:21:20;;;;;;;25.95;19.05;;;8.00;99.90;;;;;;5121837;27;20112;-84
2023/11/14 04:23:48;;;;;;;25.85;19.25;;;8.00;99.90;;;;;;5105711;27;20027;-84
2023/11/14 04:26:14;;;;;;;24.95;17.58;;;8.00;99.90;;;;;;5124239;27;20027;-84
2023/11/14 04:28:41;;;;;;;21.67;18.30;;;8.00;99.90;;;;;;5121699;27;20106;-84
2023/11/14 04:31:07;;;;;;;26.60;19.45;;;7.90;99.90;;;;;;5124644;27;20030;-84
2023/11/14 04:33:32;;;;;;;29.05;19.30;;;7.90;99.90;;;;;;5122517;27;20020;-84
2023/11/14 04:35:58;;;;;;;24.98;19.95;;;7.90;99.90;;;;;;5121540;27;20024;-84
2023/11/14 04:38:24;;;;;;;29.23;20.65;;;7.90;99.90;;;;;;5103803;27;20115;-84
2023/11/14 04:40:50;;;;;;;28.35;19.35;;;8.00;99.90;;;;;;5124605;27;20034;-84
2023/11/14 04:43:17;;;;;;;27.00;20.98;;;7.90;99.90;;;;;;5103448;27;20036;-84
2023/11/14 04:45:43;;;;;;;28.38;20.67;;;7.90;99.90;;;;;;5121335;27;20027;-84
2023/11/14 04:48:11;;;;;;;26.05;20.20;;;7.90;99.90;;;;;;5121341;27;20030;-84
2023/11/14 04:50:37;;;;;;;26.75;20.38;;;7.90;99.90;;;;;;5120944;27;20440;-84
2023/11/14 04:53:03;;;;;;;26.95;20.23;;;7.90;99.90;;;;;;5103194;27;20052;-84
2023/11/14 04:55:29;;;;;;;30.58;20.23;;;8.00;99.90;;;;;;5123295;27;20042;-84
2023/11/14 04:57:55;;;;;;;28.65;20.80;;;7.90;99.90;;;;;;5123177;27;20089;-84
2023/11/14 05:00:21;;;;;;;28.08;20.13;;;7.80;99.90;;;;;;5121181;27;20441;-85
2023/11/14 05:02:47;;;;;;;28.10;21.20;;;7.80;99.90;;;;;;5120907;27;20027;-83
2023/11/14 05:05:13;;;;;;;30.05;22.77;;;7.90;99.90;;;;;;5123604;27;20409;-84
2023/11/14 05:07:42;;;;;;;29.60;22.38;;;7.90;99.90;;;;;;5122516;27;20030;-83
2023/11/14 05:10:09;;;;;;;30.50;21.88;;;7.90;99.90;;;;;;5121434;27;20157;-83
2023/11/14 05:12:34;;;;;;;30.98;22.08;;;7.80;99.90;;;;;;5105740;27;20023;-84
2023/11/14 05:15:00;;;;;;;29.23;22.92;;;7.90;99.90;;;;;;5124207;27;20029;-84
2023/11/14 05:17:26;;;;;;;31.45;21.42;;;7.90;99.90;;;;;;5122120;28;20022;-85
2023/11/14 05:19:54;;;;;;;29.55;21.38;;;7.90;99.90;;;;;;5103776;28;20122;-84
2023/11/14 05:22:20;;;;;;;32.60;22.10;;;7.90;99.90;;;;;;5124146;28;20424;-85
2023/11/14 05:24:46;;;;;;;35.97;26.63;;;7.90;99.90;;;;;;5121134;28;20080;-84
2023/11/14 05:27:12;;;;;;;31.20;24.83;;;7.90;99.90;;;;;;5122991;28;20371;-84
2023/11/14 05:29:38;;;;;;;35.25;25.30;;;7.80;99.90;;;;;;5107026;28;20028;-85
2023/11/14 05:32:04;;;;;;;31.80;23.98;;;7.80;99.90;;;;;;5102812;28;20077;-84
2023/11/14 05:34:30;;;;;;;34.63;23.88;;;7.80;99.90;;;;;;5123941;28;20028;-84
2023/11/14 05:36:56;;;;;;;34.80;24.45;;;7.80;99.90;;;;;;5121088;28;20019;-83
2023/11/14 05:39:21;;;;;;;31.98;23.98;;;7.90;99.90;;;;;;5122788;28;20019;-84
2023/11/14 05:41:47;;;;;;;29.73;22.52;;;7.80;99.90;;;;;;5122643;28;20029;-84
2023/11/14 05:44:14;;;;;;;29.80;22.20;;;7.80;99.90;;;;;;5120967;28;20094;-84
2023/11/14 05:46:40;;;;;;;33.67;24.20;;;7.80;99.90;;;;;;5112663;28;20019;-85
2023/11/14 05:49:06;;;;;;;33.13;23.83;;;7.80;99.90;;;;;;5104719;28;20019;-85
2023/11/14 05:51:32;;;;;;;31.88;24.08;;;7.80;99.90;;;;;;5122759;28;20072;-84
2023/11/14 05:53:59;;;;;;;29.70;22.55;;;7.80;99.90;;;;;;5123158;28;20660;-84
2023/11/14 05:56:25;;;;;;;34.63;25.15;;;7.80;99.90;;;;;;5106005;28;20030;-84
2023/11/14 05:58:52;;;;;;;35.22;24.42;;;7.80;99.90;;;;;;5120844;28;20048;-84
2023/11/14 06:01:17;;;;;;;35.88;24.73;;;7.80;99.90;;;;;;5104054;28;20462;-84
2023/11/14 06:03:43;;;;;;;37.70;25.65;;;7.80;99.90;;;;;;5122727;28;20042;-84
2023/11/14 06:06:09;;;;;;;32.13;24.42;;;7.80;99.90;;;;;;5098947;28;20032;-84
2023/11/14 06:08:35;;;;;;;32.58;25.48;;;7.70;99.90;;;;;;5101955;28;20035;-84
2023/11/14 06:11:01;;;;;;;37.38;24.27;;;7.70;99.90;;;;;;5123278;28;20027;-84
2023/11/14 06:13:27;;;;;;;39.22;26.65;;;7.70;99.90;;;;;;5126021;27;20027;-83
2023/11/14 06:15:53;;;;;;;38.38;25.55;;;7.70;99.90;;;;;;5125021;27;20085;-84
2023/11/14 06:18:18;;;;;;;35.40;26.70;;;7.80;99.90;;;;;;5123323;27;20433;-84
2023/11/14 06:20:44;;;;;;;35.00;25.35;;;7.80;99.90;;;;;;5119099;27;20027;-84
2023/11/14 06:23:10;;;;;;;38.05;26.90;;;7.80;99.90;;;;;;5126442;27;20153;-84
2023/11/14 06:25:36;;;;;;;41.97;27.83;;;7.80;99.90;;;;;;5108088;27;20478;-84
2023/11/14 06:28:01;;;;;;;36.90;25.13;;;7.90;99.90;;;;;;5104500;27;20105;-84
2023/11/14 06:30:27;;;;;;;37.53;26.50;;;7.90;99.90;;;;;;5124930;27;20027;-84
2023/11/14 06:32:53;;;;;;;38.67;26.77;;;8.00;99.90;;;;;;5124942;27;20024;-84
2023/11/14 06:35:18;;;;;;;40.13;27.02;;;7.90;99.90;;;;;;5126047;27;20023;-84
2023/11/14 06:37:47;;;;;;;41.17;26.83;;;8.00;99.90;;;;;;5125359;27;20399;-84
2023/11/14 06:40:13;;;;;;;38.22;26.30;;;8.00;99.90;;;;;;5105382;28;20038;-84
2023/11/14 06:42:39;;;;;;;38.20;28.00;;;8.00;99.90;;;;;;5126668;27;20027;-84
2023/11/14 06:45:08;;;;;;;41.08;27.00;;;8.00;99.90;;;;;;5122883;27;20391;-84
2023/11/14 06:47:33;;;;;;;37.20;27.15;;;8.00;99.90;;;;;;5107062;27;20027;-84
2023/11/14 06:49:59;;;;;;;40.45;27.67;;;8.10;99.90;;;;;;5123811;27;20076;-85
2023/11/14 06:52:25;;;;;;;40.83;28.55;;;8.10;99.90;;;;;;5108109;27;20076;-84
2023/11/14 06:54:51;;;;;;;40.28;28.02;;;8.20;99.90;;;;;;5105324;27;20032;-84
2023/11/14 06:57:16;;;;;;;40.15;29.35;;;8.20;99.90;;;;;;5106928;27;20042;-84
2023/11/14 06:59:42;;;;;;;39.72;29.27;;;8.30;99.90;;;;;;5125279;27;20046;-84
2023/11/14 07:02:09;;;;;;;46.05;29.67;;;8.20;99.90;;;;;;5123259;27;20558;-84
2023/11/14 07:04:38;;;;;;;43.05;30.25;;;8.20;99.90;;;;;;5104792;27;20023;-84
2023/11/14 07:07:07;;;;;;;40.97;30.55;;;8.20;99.90;;;;;;5124917;27;20071;-83
2023/11/14 07:09:32;;;;;;;41.90;29.98;;;8.20;99.90;;;;;;5125409;27;20289;-83
2023/11/14 07:11:58;;;;;;;41.13;30.52;;;8.20;99.90;;;;;;5104687;28;20172;-83
2023/11/14 07:14:25;;;;;;;42.70;32.35;;;8.20;99.90;;;;;;5119139;27;20031;-83
2023/11/14 07:16:52;;;;;;;43.83;32.17;;;8.20;99.90;;;;;;5104487;27;20043;-83
2023/11/14 07:19:18;;;;;;;44.55;32.40;;;8.20;99.90;;;;;;5108362;27;20023;-84
2023/11/14 07:21:46;;;;;;;42.40;31.52;;;8.20;99.90;;;;;;5122953;27;20032;-84
2023/11/14 07:24:12;;;;;;;39.50;30.67;;;8.20;99.90;;;;;;5100310;27;20035;-83
2023/11/14 07:26:38;;;;;;;59.05;32.65;;;8.20;99.90;;;;;;5124909;27;20035;-84
2023/11/14 07:29:04;;;;;;;48.05;31.95;;;8.20;99.90;;;;;;5103684;28;20050;-84
2023/11/14 07:31:30;;;;;;;43.67;33.97;;;8.30;99.90;;;;;;5125051;27;20027;-84
2023/11/14 07:33:56;;;;;;;43.10;33.08;;;8.30;99.90;;;;;;5122220;27;20020;-84
2023/11/14 07:36:24;;;;;;;45.42;34.53;;;8.30;99.90;;;;;;5106777;27;20076;-84
2023/11/14 07:38:50;;;;;;;44.65;32.78;;;8.30;99.90;;;;;;5121489;27;20520;-83
2023/11/14 07:41:15;;;;;;;50.42;34.10;;;8.40;99.90;;;;;;5124391;27;20035;-83
2023/11/14 07:43:41;;;;;;;135.43;42.72;;;8.40;99.90;;;;;;5122267;27;20032;-83
2023/11/14 07:46:09;;;;;;;73.68;36.85;;;8.40;99.90;;;;;;5123821;27;20118;-83
2023/11/14 07:48:35;;;;;;;71.07;35.10;;;8.50;99.90;;;;;;5124185;27;20023;-84
2023/11/14 07:51:02;;;;;;;69.40;35.60;;;8.50;99.90;;;;;;5124034;27;20069;-84
2023/11/14 07:53:28;;;;;;;59.00;34.92;;;8.60;99.90;;;;;;5122323;27;20035;-84
2023/11/14 07:55:54;;;;;;;50.92;34.28;;;8.60;99.90;;;;;;5107601;27;20228;-84
2023/11/14 07:58:20;;;;;;;53.97;38.25;;;8.70;99.90;;;;;;5126011;27;20148;-84
2023/11/14 08:00:46;;;;;;;47.65;36.35;;;8.70;99.90;;;;;;5122758;27;20024;-84
2023/11/14 08:03:12;;;;;;;51.60;36.88;;;8.80;99.90;;;;;;5122759;27;20080;-84
2023/11/14 08:05:40;;;;;;;51.95;34.85;;;8.80;99.90;;;;;;5122302;27;20410;-83
2023/11/14 08:08:10;;;;;;;51.58;36.15;;;8.90;99.90;;;;;;5100356;27;20559;-84
2023/11/14 08:10:36;;;;;;;46.50;34.22;;;8.90;99.90;;;;;;5107267;27;20539;-83
2023/11/14 08:13:02;;;;;;;45.72;33.22;;;9.00;99.90;;;;;;5122281;27;20019;-83
2023/11/14 08:15:28;;;;;;;46.03;35.00;;;9.00;99.90;;;;;;5124683;27;20480;-84
2023/11/14 08:17:54;;;;;;;48.67;35.42;;;9.00;99.90;;;;;;5122058;27;20026;-84
2023/11/14 08:20:20;;;;;;;50.50;36.63;;;9.10;99.90;;;;;;5104939;27;20016;-84
2023/11/14 08:22:45;;;;;;;47.58;35.67;;;9.10;99.90;;;;;;5123657;27;20024;-84
2023/11/14 08:25:11;;;;;;;47.78;36.85;;;9.10;99.90;;;;;;5121935;27;20051;-84
2023/11/14 08:27:39;;;;;;;53.75;36.90;;;9.10;99.90;;;;;;5124869;27;20026;-84
2023/11/14 08:30:09;;;;;;;48.45;36.67;;;9.20;99.90;;;;;;5101672;27;20028;-84
2023/11/14 08:32:35;;;;;;;53.03;37.03;;;9.20;99.90;;;;;;5122353;27;20023;-84
2023/11/14 08:35:03;;;;;;;49.83;38.45;;;9.20;99.90;;;;;;5124032;27;20034;-84
2023/11/14 08:37:29;;;;;;;50.95;35.90;;;9.20;99.90;;;;;;5098357;27;20027;-84
2023/11/14 08:39:55;;;;;;;52.40;36.15;;;9.30;99.90;;;;;;5122480;27;20028;-83
2023/11/14 08:42:21;;;;;;;48.00;34.22;;;9.20;99.90;;;;;;5104135;27;20103;-83
2023/11/14 08:44:47;;;;;;;44.55;33.13;;;9.30;99.90;;;;;;5105805;27;20030;-84
2023/11/14 08:47:13;;;;;;;47.13;34.35;;;9.30;99.90;;;;;;5121158;27;20117;-84
2023/11/14 08:49:39;;;;;;;53.17;37.72;;;9.30;99.90;;;;;;5106659;27;20079;-84
2023/11/14 08:52:05;;;;;;;45.20;33.83;;;9.20;99.90;;;;;;5124954;27;20046;-84
2023/11/14 08:54:32;;;;;;;44.83;35.15;;;9.30;99.90;;;;;;5103653;28;20383;-84
2023/11/14 08:56:57;;;;;;;45.50;34.60;;;9.30;99.90;;;;;;5105675;27;20031;-84
2023/11/14 08:59:23;;;;;;;46.65;33.65;;;9.30;99.90;;;;;;5117237;27;20153;-84
2023/11/14 09:01:49;;;;;;;47.67;34.58;;;9.40;99.90;;;;;;5105018;28;20038;-84
2023/11/14 09:04:14;;;;;;;46.80;34.15;;;9.40;99.90;;;;;;5122683;27;20479;-84
2023/11/14 09:06:40;;;;;;;47.47;35.60;;;9.40;99.90;;;;;;5121329;27;20028;-83
2023/11/14 09:09:07;;;;;;;48.60;35.80;;;9.50;99.90;;;;;;5124127;27;20372;-83
2023/11/14 09:11:33;;;;;;;51.10;36.05;;;9.50;99.90;;;;;;5119832;27;20034;-83
2023/11/14 09:13:59;;;;;;;52.03;37.25;;;9.60;99.90;;;;;;5103668;28;20028;-83
2023/11/14 09:16:25;;;;;;;48.65;35.05;;;9.60;99.90;;;;;;5122758;27;20102;-84
2023/11/14 09:18:53;;;;;;;70.95;39.25;;;9.70;99.90;;;;;;5102728;28;20028;-82
2023/11/14 09:21:19;;;;;;;60.35;40.88;;;9.80;99.90;;;;;;5097790;28;20118;-84
2023/11/14 09:23:45;;;;;;;52.88;40.08;;;9.90;99.90;;;;;;5121763;28;20118;-84
2023/11/14 09:26:11;;;;;;;62.13;40.97;;;9.90;99.90;;;;;;5104016;28;20039;-84
2023/11/14 09:28:37;;;;;;;59.05;37.58;;;10.00;99.90;;;;;;5123251;28;20023;-84
2023/11/14 09:31:04;;;;;;;50.55;37.83;;;10.00;99.90;;;;;;5120458;28;20411;-84
2023/11/14 09:33:32;;;;;;;54.92;38.80;;;10.00;99.90;;;;;;5101501;28;20020;-83
2023/11/14 09:35:58;;;;;;;48.70;37.85;;;10.10;99.90;;;;;;5103658;28;20032;-83
2023/11/14 09:38:24;;;;;;;53.40;39.53;;;10.10;99.90;;;;;;5121255;28;20030;-83
2023/11/14 09:40:51;;;;;;;55.95;40.63;;;10.10;99.90;;;;;;5123479;28;20399;-83
2023/11/14 09:43:17;;;;;;;47.00;38.28;;;10.20;99.90;;;;;;5102570;28;20087;-83
2023/11/14 09:45:45;;;;;;;49.30;38.25;;;10.30;99.90;;;;;;5102096;27;20038;-83
2023/11/14 09:48:11;;;;;;;51.00;40.47;;;10.30;99.90;;;;;;5126016;27;20100;-84
2023/11/14 09:50:41;;;;;;;54.15;39.92;;;10.40;99.90;;;;;;5124265;27;20502;-84
2023/11/14 09:53:07;;;;;;;51.95;39.90;;;10.50;99.90;;;;;;5126862;27;20062;-83
2023/11/14 09:55:33;;;;;;;51.85;37.88;;;10.60;99.90;;;;;;5107553;27;20057;-83
2023/11/14 09:58:05;;;;;;;50.55;36.75;;;10.60;99.90;;;;;;5125225;27;20473;-84
2023/11/14 10:00:35;;;;;;;53.72;39.00;;;10.60;99.90;;;;;;5102043;27;20020;-83
2023/11/14 10:03:03;;;;;;;50.50;39.60;;;10.70;99.90;;;;;;5125902;27;20027;-83
2023/11/14 10:05:31;;;;;;;54.10;38.20;;;10.80;99.90;;;;;;5126705;27;20080;-83
2023/11/14 10:07:58;;;;;;;59.88;40.67;;;10.90;99.90;;;;;;5123877;27;20031;-83
2023/11/14 10:10:24;;;;;;;48.47;37.70;;;11.00;99.90;;;;;;5122411;27;20030;-83
2023/11/14 10:12:50;;;;;;;50.83;39.70;;;11.00;99.90;;;;;;5123430;27;20019;-83
2023/11/14 10:15:32;;;;;;;52.33;39.72;;;11.10;99.90;;;;;;5123687;27;20024;-82
2023/11/14 10:17:59;;;;;;;55.67;42.22;;;11.10;99.90;;;;;;5123299;27;20016;-83
2023/11/14 10:20:36;;;;;;;56.50;42.25;;;11.10;99.90;;;;;;5124634;27;20020;-83
2023/11/14 10:23:04;;;;;;;55.90;41.75;;;11.20;99.90;;;;;;5122158;27;20031;-83
2023/11/14 10:25:32;;;;;;;54.72;40.15;;;11.20;99.90;;;;;;5124852;27;20455;-83
2023/11/14 10:28:07;;;;;;;60.00;41.75;;;11.20;99.90;;;;;;5108446;27;20019;-83
2023/11/14 10:30:49;;;;;;;58.92;42.00;;;11.10;99.90;;;;;;5125058;27;20031;-82
2023/11/14 10:33:16;;;;;;;55.13;40.30;;;11.20;99.90;;;;;;5121142;27;20038;-83
2023/11/14 10:35:43;;;;;;;52.40;40.05;;;11.20;99.90;;;;;;5121175;27;20023;-83
2023/11/14 10:38:25;;;;;;;52.08;40.03;;;11.20;99.90;;;;;;5126228;27;20015;-83
2023/11/14 10:40:53;;;;;;;50.55;38.83;;;11.20;99.90;;;;;;5123007;27;20024;-83
2023/11/14 10:43:32;;;;;;;55.45;40.35;;;11.20;99.90;;;;;;5123608;27;20475;-82
2023/11/14 10:46:11;;;;;;;55.15;39.38;;;11.30;99.90;;;;;;5122139;27;20106;-83
2023/11/14 10:48:37;;;;;;;61.40;42.60;;;11.30;99.90;;;;;;5116705;27;20308;-83
2023/11/14 10:51:04;;;;;;;57.83;42.88;;;11.30;99.90;;;;;;5106635;27;20027;-83
2023/11/14 10:53:30;;;;;;;60.33;42.65;;;11.30;99.90;;;;;;5106917;27;20570;-82
2023/11/14 10:55:56;;;;;;;61.63;42.97;;;11.30;99.90;;;;;;5105117;28;20024;-82
2023/11/14 10:58:23;;;;;;;57.28;40.10;;;11.40;99.90;;;;;;5119046;27;20514;-83
2023/11/14 11:00:51;;;;;;;57.85;41.30;;;11.30;99.90;;;;;;5125219;27;20026;-83
2023/11/14 11:03:17;;;;;;;52.85;40.38;;;11.30;99.90;;;;;;5125064;27;20075;-83
2023/11/14 11:05:43;;;;;;;53.78;40.05;;;11.30;99.90;;;;;;5122910;27;20027;-83
2023/11/14 11:08:12;;;;;;;53.40;40.22;;;11.30;99.90;;;;;;5126334;27;20035;-83
2023/11/14 11:10:39;;;;;;;56.50;39.58;;;11.30;99.90;;;;;;5105555;27;20023;-83
2023/11/14 11:13:12;;;;;;;55.55;40.22;;;11.40;99.90;;;;;;5123964;27;20087;-83
2023/11/14 11:15:46;;;;;;;56.47;40.28;;;11.40;99.90;;;;;;5098189;27;20519;-82
2023/11/14 11:18:12;;;;;;;53.85;39.40;;;11.40;99.90;;;;;;5123980;27;20035;-83
2023/11/14 11:20:39;;;;;;;57.60;39.38;;;11.50;99.90;;;;;;5107202;27;20098;-82
2023/11/14 11:23:08;;;;;;;54.78;40.83;;;11.50;99.90;;;;;;5107700;27;20026;-82
2023/11/14 11:25:35;;;;;;;49.85;38.72;;;11.50;99.90;;;;;;5123995;27;20483;-83
2023/11/14 11:28:27;;;;;;;52.50;38.58;;;11.60;99.90;;;;;;5123561;27;20056;-83
2023/11/14 11:31:04;;;;;;;50.53;39.45;;;11.60;99.90;;;;;;5110812;27;20036;-82
2023/11/14 11:33:37;;;;;;;52.47;37.42;;;11.70;99.90;;;;;;5121107;27;20101;-83
2023/11/14 11:36:24;;;;;;;51.53;38.00;;;11.70;99.90;;;;;;5122525;27;20016;-83
2023/11/14 11:38:54;;;;;;;52.92;38.38;;;11.70;99.90;;;;;;5124331;27;20053;-83
2023/11/14 11:41:21;;;;;;;49.90;36.67;;;11.80;99.90;;;;;;5119028;27;20020;-83
2023/11/14 11:44:07;;;;;;;49.30;36.85;;;11.80;99.90;;;;;;5124249;27;20055;-83
2023/11/14 11:46:33;;;;;;;50.85;35.65;;;11.80;99.90;;;;;;5118750;27;20034;-83
2023/11/14 11:49:14;;;;;;;53.95;37.97;;;11.80;99.90;;;;;;5115451;27;20019;-82
2023/11/14 11:51:43;;;;;;;53.15;37.40;;;11.80;99.00;;;;;;5115296;27;20048;-82
2023/11/14 11:54:27;;;;;;;50.90;37.55;;;11.80;94.40;;;;;;5102148;27;20024;-82
2023/11/14 11:57:05;;;;;;;52.38;38.88;;;11.70;98.80;;;;;;5117872;27;20024;-80
2023/11/14 11:59:40;;;;;;;48.78;36.22;;;11.70;99.90;;;;;;5109692;27;20038;-82
2023/11/14 12:02:23;;;;;;;53.08;38.00;;;11.70;99.30;;;;;;5101490;27;20024;-82
2023/11/14 12:04:52;;;;;;;45.95;36.67;;;11.80;99.90;;;;;;5114445;27;20023;-82
2023/11/14 12:07:18;;;;;;;51.58;36.80;;;11.80;99.90;;;;;;5102979;27;20666;-82
2023/11/14 12:09:47;;;;;;;46.15;35.90;;;11.80;99.90;;;;;;5119113;27;20467;-82
2023/11/14 12:12:14;;;;;;;48.95;37.92;;;11.80;99.50;;;;;;5123827;27;20022;-83
2023/11/14 12:14:41;;;;;;;49.72;38.30;;;11.80;99.90;;;;;;5105346;27;20045;-82
2023/11/14 12:17:07;;;;;;;47.55;35.63;;;11.80;99.90;;;;;;5102114;27;20360;-81
2023/11/14 12:19:34;;;;;;;49.55;39.03;;;11.80;99.50;;;;;;5117573;27;20023;-80
2023/11/14 12:22:05;;;;;;;56.40;37.42;;;11.90;99.90;;;;;;5121474;27;20502;-81
2023/11/14 12:24:31;;;;;;;47.05;35.85;;;11.80;99.90;;;;;;5125420;27;20102;-80
2023/11/14 12:26:57;;;;;;;49.67;37.70;;;11.90;99.90;;;;;;5121306;27;20062;-81
2023/11/14 12:29:23;;;;;;;45.72;35.60;;;11.80;99.90;;;;;;5124724;27;20502;-81
2023/11/14 12:31:52;;;;;;;51.88;36.53;;;11.90;99.90;;;;;;5125228;27;20053;-82
2023/11/14 12:34:29;;;;;;;48.42;37.08;;;11.80;99.90;;;;;;5122071;27;20028;-81